sensor_id;sensor_type;location;lat;lon;timestamp;P1;durP1;ratioP1;P2;durP2;ratioP2
68910;SDS011;55953;51.650;-0.522;2023-04-25T00:01:11;8.70;;;2.60;;
68910;SDS011;55953;51.650;-0.522;2023-04-25T00:03:41;12.80;;;3.00;;
68910;SDS011;55953;51.650;-0.522;2023-04-25T00:06:09;15.10;;;2.60;;
68910;SDS011;55953;51.650;-0.522;2023-04-25T00:08:37;17.00;;;3.10;;
68910;SDS011;55953;51.650;-0.522;2023-04-25T00:11:05;10.50;;;2.60;;
68910;SDS011;55953;51.650;-0.522;2023-04-25T00:13:33;12.90;;;2.90;;
68910;SDS011;55953;51.650;-0.522;2023-04-25T00:16:01;10.30;;;2.40;;
68910;SDS011;55953;51.650;-0.522;2023-04-25T00:18:30;14.10;;;2.60;;
68910;SDS011;55953;51.650;-0.522;2023-04-25T00:21:00;11.30;;;2.60;;
68910;SDS011;55953;51.650;-0.522;2023-04-25T00:23:28;7.40;;;2.30;;
68910;SDS011;55953;51.650;-0.522;2023-04-25T00:25:56;11.40;;;2.60;;
68910;SDS011;55953;51.650;-0.522;2023-04-25T00:28:24;9.50;;;2.50;;
68910;SDS011;55953;51.650;-0.522;2023-04-25T00:30:52;13.50;;;2.40;;
68910;SDS011;55953;51.650;-0.522;2023-04-25T00:33:19;7.20;;;2.30;;
68910;SDS011;55953;51.650;-0.522;2023-04-25T00:35:47;9.40;;;2.20;;
68910;SDS011;55953;51.650;-0.522;2023-04-25T00:38:15;9.80;;;2.50;;
68910;SDS011;55953;51.650;-0.522;2023-04-25T00:40:44;10.80;;;2.60;;
68910;SDS011;55953;51.650;-0.522;2023-04-25T00:43:11;9.80;;;2.00;;
68910;SDS011;55953;51.650;-0.522;2023-04-25T00:45:40;11.10;;;2.30;;
68910;SDS011;55953;51.650;-0.522;2023-04-25T00:48:08;7.90;;;2.10;;
68910;SDS011;55953;51.650;-0.522;2023-04-25T00:50:36;10.80;;;2.30;;
68910;SDS011;55953;51.650;-0.522;2023-04-25T00:53:04;6.30;;;2.00;;
68910;SDS011;55953;51.650;-0.522;2023-04-25T00:55:32;10.00;;;2.30;;
68910;SDS011;55953;51.650;-0.522;2023-04-25T00:58:03;7.70;;;2.40;;
68910;SDS011;55953;51.650;-0.522;2023-04-25T01:00:31;8.40;;;2.10;;
68910;SDS011;55953;51.650;-0.522;2023-04-25T01:02:59;8.80;;;1.90;;
68910;SDS011;55953;51.650;-0.522;2023-04-25T01:05:28;7.50;;;2.40;;
68910;SDS011;55953;51.650;-0.522;2023-04-25T01:07:56;9.50;;;1.80;;
68910;SDS011;55953;51.650;-0.522;2023-04-25T01:10:24;5.80;;;1.80;;
68910;SDS011;55953;51.650;-0.522;2023-04-25T01:12:52;10.70;;;2.20;;
68910;SDS011;55953;51.650;-0.522;2023-04-25T01:15:20;7.40;;;1.80;;
68910;SDS011;55953;51.650;-0.522;2023-04-25T01:17:48;6.70;;;2.00;;
68910;SDS011;55953;51.650;-0.522;2023-04-25T01:20:17;9.00;;;1.90;;
68910;SDS011;55953;51.650;-0.522;2023-04-25T01:22:45;9.40;;;1.70;;
68910;SDS011;55953;51.650;-0.522;2023-04-25T01:25:14;10.10;;;2.00;;
68910;SDS011;55953;51.650;-0.522;2023-04-25T01:27:42;7.20;;;2.30;;
68910;SDS011;55953;51.650;-0.522;2023-04-25T01:30:11;11.10;;;2.40;;
68910;SDS011;55953;51.650;-0.522;2023-04-25T01:32:42;12.80;;;2.30;;
68910;SDS011;55953;51.650;-0.522;2023-04-25T01:35:11;11.20;;;2.30;;
68910;SDS011;55953;51.650;-0.522;2023-04-25T01:37:43;8.60;;;2.10;;
68910;SDS011;55953;51.650;-0.522;2023-04-25T01:40:12;7.50;;;1.90;;
68910;SDS011;55953;51.650;-0.522;2023-04-25T01:42:43;7.60;;;2.00;;
68910;SDS011;55953;51.650;-0.522;2023-04-25T01:45:12;9.60;;;1.80;;
68910;SDS011;55953;51.650;-0.522;2023-04-25T01:47:40;9.30;;;1.90;;
68910;SDS011;55953;51.650;-0.522;2023-04-25T01:50:10;6.50;;;1.80;;
68910;SDS011;55953;51.650;-0.522;2023-04-25T01:52:39;11.40;;;2.20;;
68910;SDS011;55953;51.650;-0.522;2023-04-25T01:55:07;11.90;;;1.90;;
68910;SDS011;55953;51.650;-0.522;2023-04-25T01:57:38;11.80;;;2.60;;
68910;SDS011;55953;51.650;-0.522;2023-04-25T02:00:07;7.20;;;1.80;;
68910;SDS011;55953;51.650;-0.522;2023-04-25T02:02:39;9.50;;;2.00;;
68910;SDS011;55953;51.650;-0.522;2023-04-25T02:05:25;15.70;;;2.40;;
68910;SDS011;55953;51.650;-0.522;2023-04-25T02:07:53;7.00;;;2.50;;
68910;SDS011;55953;51.650;-0.522;2023-04-25T02:10:21;9.40;;;2.20;;
68910;SDS011;55953;51.650;-0.522;2023-04-25T02:12:56;8.70;;;2.00;;
68910;SDS011;55953;51.650;-0.522;2023-04-25T02:15:40;14.10;;;1.90;;
68910;SDS011;55953;51.650;-0.522;2023-04-25T02:18:16;9.40;;;2.10;;
68910;SDS011;55953;51.650;-0.522;2023-04-25T02:20:45;7.10;;;2.00;;
68910;SDS011;55953;51.650;-0.522;2023-04-25T02:23:13;9.10;;;1.90;;
68910;SDS011;55953;51.650;-0.522;2023-04-25T02:25:43;13.00;;;2.10;;
68910;SDS011;55953;51.650;-0.522;2023-04-25T02:28:11;7.70;;;1.90;;
68910;SDS011;55953;51.650;-0.522;2023-04-25T02:30:38;7.90;;;1.60;;
68910;SDS011;55953;51.650;-0.522;2023-04-25T02:33:06;9.20;;;2.00;;
68910;SDS011;55953;51.650;-0.522;2023-04-25T02:35:36;10.30;;;2.30;;
68910;SDS011;55953;51.650;-0.522;2023-04-25T02:38:03;10.80;;;2.20;;
68910;SDS011;55953;51.650;-0.522;2023-04-25T02:40:33;11.10;;;2.20;;
68910;SDS011;55953;51.650;-0.522;2023-04-25T02:43:01;8.80;;;2.30;;
68910;SDS011;55953;51.650;-0.522;2023-04-25T02:45:28;10.10;;;2.10;;
68910;SDS011;55953;51.650;-0.522;2023-04-25T02:47:56;5.50;;;2.10;;
68910;SDS011;55953;51.650;-0.522;2023-04-25T02:50:24;9.10;;;2.00;;
68910;SDS011;55953;51.650;-0.522;2023-04-25T02:52:52;9.80;;;2.50;;
68910;SDS011;55953;51.650;-0.522;2023-04-25T02:55:24;9.80;;;2.00;;
68910;SDS011;55953;51.650;-0.522;2023-04-25T02:57:55;8.40;;;1.90;;
68910;SDS011;55953;51.650;-0.522;2023-04-25T03:00:34;7.10;;;2.10;;
68910;SDS011;55953;51.650;-0.522;2023-04-25T03:03:02;7.80;;;1.90;;
68910;SDS011;55953;51.650;-0.522;2023-04-25T03:05:30;11.00;;;2.30;;
68910;SDS011;55953;51.650;-0.522;2023-04-25T03:07:59;8.90;;;2.10;;
68910;SDS011;55953;51.650;-0.522;2023-04-25T03:10:27;5.60;;;1.90;;
68910;SDS011;55953;51.650;-0.522;2023-04-25T03:12:56;8.80;;;2.00;;
68910;SDS011;55953;51.650;-0.522;2023-04-25T03:15:25;11.90;;;2.20;;
68910;SDS011;55953;51.650;-0.522;2023-04-25T03:17:53;11.50;;;2.10;;
68910;SDS011;55953;51.650;-0.522;2023-04-25T03:20:21;7.10;;;2.50;;
68910;SDS011;55953;51.650;-0.522;2023-04-25T03:22:49;11.80;;;2.30;;
68910;SDS011;55953;51.650;-0.522;2023-04-25T03:25:18;10.80;;;2.30;;
68910;SDS011;55953;51.650;-0.522;2023-04-25T03:27:46;11.30;;;2.50;;
68910;SDS011;55953;51.650;-0.522;2023-04-25T03:30:14;7.50;;;2.20;;
68910;SDS011;55953;51.650;-0.522;2023-04-25T03:32:43;8.30;;;2.30;;
68910;SDS011;55953;51.650;-0.522;2023-04-25T03:35:14;7.20;;;2.20;;
68910;SDS011;55953;51.650;-0.522;2023-04-25T03:37:42;8.30;;;1.80;;
68910;SDS011;55953;51.650;-0.522;2023-04-25T03:40:16;10.40;;;2.20;;
68910;SDS011;55953;51.650;-0.522;2023-04-25T03:43:10;9.60;;;2.60;;
68910;SDS011;55953;51.650;-0.522;2023-04-25T03:45:41;10.80;;;2.70;;
68910;SDS011;55953;51.650;-0.522;2023-04-25T03:48:08;6.70;;;2.20;;
68910;SDS011;55953;51.650;-0.522;2023-04-25T03:50:36;10.80;;;2.20;;
68910;SDS011;55953;51.650;-0.522;2023-04-25T03:53:04;8.20;;;2.20;;
68910;SDS011;55953;51.650;-0.522;2023-04-25T03:55:46;9.60;;;2.10;;
68910;SDS011;55953;51.650;-0.522;2023-04-25T03:58:14;7.70;;;1.90;;
68910;SDS011;55953;51.650;-0.522;2023-04-25T04:00:42;10.00;;;2.60;;
68910;SDS011;55953;51.650;-0.522;2023-04-25T04:03:09;8.10;;;1.90;;
68910;SDS011;55953;51.650;-0.522;2023-04-25T04:05:38;9.30;;;2.20;;
68910;SDS011;55953;51.650;-0.522;2023-04-25T04:08:09;8.30;;;2.30;;
68910;SDS011;55953;51.650;-0.522;2023-04-25T04:10:38;7.70;;;2.00;;
68910;SDS011;55953;51.650;-0.522;2023-04-25T04:13:06;6.30;;;2.30;;
68910;SDS011;55953;51.650;-0.522;2023-04-25T04:15:34;8.60;;;2.50;;
68910;SDS011;55953;51.650;-0.522;2023-04-25T04:18:02;7.70;;;1.70;;
68910;SDS011;55953;51.650;-0.522;2023-04-25T04:20:30;8.70;;;2.10;;
68910;SDS011;55953;51.650;-0.522;2023-04-25T04:22:58;7.60;;;2.00;;
68910;SDS011;55953;51.650;-0.522;2023-04-25T04:25:26;14.20;;;2.40;;
68910;SDS011;55953;51.650;-0.522;2023-04-25T04:28:33;10.60;;;2.50;;
68910;SDS011;55953;51.650;-0.522;2023-04-25T04:31:06;9.90;;;2.40;;
68910;SDS011;55953;51.650;-0.522;2023-04-25T04:33:35;8.10;;;2.60;;
68910;SDS011;55953;51.650;-0.522;2023-04-25T04:36:05;6.00;;;2.00;;
68910;SDS011;55953;51.650;-0.522;2023-04-25T04:38:35;12.40;;;2.50;;
68910;SDS011;55953;51.650;-0.522;2023-04-25T04:41:06;11.50;;;2.40;;
68910;SDS011;55953;51.650;-0.522;2023-04-25T04:43:48;11.30;;;2.50;;
68910;SDS011;55953;51.650;-0.522;2023-04-25T04:46:30;7.60;;;2.20;;
68910;SDS011;55953;51.650;-0.522;2023-04-25T04:49:12;5.60;;;1.90;;
68910;SDS011;55953;51.650;-0.522;2023-04-25T04:51:49;7.40;;;2.20;;
68910;SDS011;55953;51.650;-0.522;2023-04-25T04:54:49;7.30;;;2.60;;
68910;SDS011;55953;51.650;-0.522;2023-04-25T04:57:33;9.90;;;2.60;;
68910;SDS011;55953;51.650;-0.522;2023-04-25T05:00:15;8.70;;;2.50;;
68910;SDS011;55953;51.650;-0.522;2023-04-25T05:03:02;8.80;;;2.50;;
68910;SDS011;55953;51.650;-0.522;2023-04-25T05:05:41;7.90;;;2.00;;
68910;SDS011;55953;51.650;-0.522;2023-04-25T05:08:27;9.50;;;1.90;;
68910;SDS011;55953;51.650;-0.522;2023-04-25T05:11:10;8.70;;;2.40;;
68910;SDS011;55953;51.650;-0.522;2023-04-25T05:13:58;11.60;;;2.40;;
68910;SDS011;55953;51.650;-0.522;2023-04-25T05:16:45;11.70;;;2.50;;
68910;SDS011;55953;51.650;-0.522;2023-04-25T05:19:48;9.80;;;2.60;;
68910;SDS011;55953;51.650;-0.522;2023-04-25T05:22:35;9.60;;;2.20;;
68910;SDS011;55953;51.650;-0.522;2023-04-25T05:25:22;6.70;;;2.20;;
68910;SDS011;55953;51.650;-0.522;2023-04-25T05:27:57;10.10;;;2.30;;
68910;SDS011;55953;51.650;-0.522;2023-04-25T05:30:40;7.40;;;2.00;;
68910;SDS011;55953;51.650;-0.522;2023-04-25T05:33:20;9.00;;;2.70;;
68910;SDS011;55953;51.650;-0.522;2023-04-25T05:35:48;13.20;;;2.60;;
68910;SDS011;55953;51.650;-0.522;2023-04-25T05:38:16;7.70;;;2.30;;
68910;SDS011;55953;51.650;-0.522;2023-04-25T05:41:03;16.60;;;2.50;;
68910;SDS011;55953;51.650;-0.522;2023-04-25T05:43:41;7.80;;;2.20;;
68910;SDS011;55953;51.650;-0.522;2023-04-25T05:46:35;8.10;;;2.50;;
68910;SDS011;55953;51.650;-0.522;2023-04-25T05:49:19;10.70;;;2.70;;
68910;SDS011;55953;51.650;-0.522;2023-04-25T05:52:13;9.60;;;2.20;;
68910;SDS011;55953;51.650;-0.522;2023-04-25T05:54:49;9.00;;;2.40;;
68910;SDS011;55953;51.650;-0.522;2023-04-25T05:57:24;8.30;;;2.40;;
68910;SDS011;55953;51.650;-0.522;2023-04-25T05:59:54;9.40;;;2.00;;
68910;SDS011;55953;51.650;-0.522;2023-04-25T06:02:23;7.70;;;2.00;;
68910;SDS011;55953;51.650;-0.522;2023-04-25T06:04:52;9.50;;;2.50;;
68910;SDS011;55953;51.650;-0.522;2023-04-25T06:07:22;10.10;;;2.20;;
68910;SDS011;55953;51.650;-0.522;2023-04-25T06:09:50;9.20;;;2.10;;
68910;SDS011;55953;51.650;-0.522;2023-04-25T06:12:18;7.50;;;2.00;;
68910;SDS011;55953;51.650;-0.522;2023-04-25T06:14:47;10.20;;;2.30;;
68910;SDS011;55953;51.650;-0.522;2023-04-25T06:17:15;9.20;;;2.20;;
68910;SDS011;55953;51.650;-0.522;2023-04-25T06:19:43;7.30;;;2.10;;
68910;SDS011;55953;51.650;-0.522;2023-04-25T06:22:12;6.70;;;1.90;;
68910;SDS011;55953;51.650;-0.522;2023-04-25T06:24:40;4.50;;;1.80;;
68910;SDS011;55953;51.650;-0.522;2023-04-25T06:27:08;12.40;;;2.30;;
68910;SDS011;55953;51.650;-0.522;2023-04-25T06:29:36;12.80;;;2.70;;
68910;SDS011;55953;51.650;-0.522;2023-04-25T06:32:05;5.70;;;1.90;;
68910;SDS011;55953;51.650;-0.522;2023-04-25T06:34:34;8.50;;;2.20;;
68910;SDS011;55953;51.650;-0.522;2023-04-25T06:37:02;5.80;;;1.90;;
68910;SDS011;55953;51.650;-0.522;2023-04-25T06:39:30;6.10;;;2.20;;
68910;SDS011;55953;51.650;-0.522;2023-04-25T06:41:58;6.70;;;1.90;;
68910;SDS011;55953;51.650;-0.522;2023-04-25T06:44:44;8.30;;;1.90;;
68910;SDS011;55953;51.650;-0.522;2023-04-25T06:47:13;5.60;;;1.90;;
68910;SDS011;55953;51.650;-0.522;2023-04-25T06:49:42;5.70;;;2.00;;
68910;SDS011;55953;51.650;-0.522;2023-04-25T06:52:10;8.00;;;2.10;;
68910;SDS011;55953;51.650;-0.522;2023-04-25T06:54:38;6.80;;;2.60;;
68910;SDS011;55953;51.650;-0.522;2023-04-25T06:57:18;7.70;;;1.80;;
68910;SDS011;55953;51.650;-0.522;2023-04-25T06:59:46;5.20;;;1.90;;
68910;SDS011;55953;51.650;-0.522;2023-04-25T07:02:14;8.70;;;1.90;;
68910;SDS011;55953;51.650;-0.522;2023-04-25T07:04:42;7.00;;;1.90;;
68910;SDS011;55953;51.650;-0.522;2023-04-25T07:07:11;7.10;;;1.80;;
68910;SDS011;55953;51.650;-0.522;2023-04-25T07:09:46;8.00;;;2.20;;
68910;SDS011;55953;51.650;-0.522;2023-04-25T07:12:15;9.40;;;1.70;;
68910;SDS011;55953;51.650;-0.522;2023-04-25T07:14:43;8.00;;;2.10;;
68910;SDS011;55953;51.650;-0.522;2023-04-25T07:17:11;7.00;;;1.90;;
68910;SDS011;55953;51.650;-0.522;2023-04-25T07:19:39;5.70;;;1.80;;
68910;SDS011;55953;51.650;-0.522;2023-04-25T07:22:08;6.50;;;1.70;;
68910;SDS011;55953;51.650;-0.522;2023-04-25T07:24:36;9.20;;;2.30;;
68910;SDS011;55953;51.650;-0.522;2023-04-25T07:27:04;7.00;;;2.70;;
68910;SDS011;55953;51.650;-0.522;2023-04-25T07:29:45;11.50;;;2.30;;
68910;SDS011;55953;51.650;-0.522;2023-04-25T07:32:14;10.30;;;2.30;;
68910;SDS011;55953;51.650;-0.522;2023-04-25T07:34:42;7.10;;;2.30;;
68910;SDS011;55953;51.650;-0.522;2023-04-25T07:37:10;9.50;;;2.60;;
68910;SDS011;55953;51.650;-0.522;2023-04-25T07:39:49;10.10;;;2.30;;
68910;SDS011;55953;51.650;-0.522;2023-04-25T07:42:17;9.40;;;2.80;;
68910;SDS011;55953;51.650;-0.522;2023-04-25T07:44:45;10.10;;;2.50;;
68910;SDS011;55953;51.650;-0.522;2023-04-25T07:47:13;7.50;;;2.50;;
68910;SDS011;55953;51.650;-0.522;2023-04-25T07:49:41;8.60;;;2.80;;
68910;SDS011;55953;51.650;-0.522;2023-04-25T07:52:09;8.10;;;2.50;;
68910;SDS011;55953;51.650;-0.522;2023-04-25T07:54:37;9.80;;;2.60;;
68910;SDS011;55953;51.650;-0.522;2023-04-25T07:57:12;8.90;;;2.70;;
68910;SDS011;55953;51.650;-0.522;2023-04-25T07:59:41;6.50;;;2.40;;
68910;SDS011;55953;51.650;-0.522;2023-04-25T08:02:09;8.50;;;2.80;;
68910;SDS011;55953;51.650;-0.522;2023-04-25T08:04:38;7.90;;;2.30;;
68910;SDS011;55953;51.650;-0.522;2023-04-25T08:07:09;6.60;;;2.30;;
68910;SDS011;55953;51.650;-0.522;2023-04-25T08:09:49;9.10;;;3.10;;
68910;SDS011;55953;51.650;-0.522;2023-04-25T08:12:26;9.00;;;2.70;;
68910;SDS011;55953;51.650;-0.522;2023-04-25T08:14:56;8.20;;;2.30;;
68910;SDS011;55953;51.650;-0.522;2023-04-25T08:17:24;9.20;;;2.40;;
68910;SDS011;55953;51.650;-0.522;2023-04-25T08:19:52;8.80;;;2.40;;
68910;SDS011;55953;51.650;-0.522;2023-04-25T08:22:24;6.50;;;2.50;;
68910;SDS011;55953;51.650;-0.522;2023-04-25T08:25:10;10.90;;;3.00;;
68910;SDS011;55953;51.650;-0.522;2023-04-25T08:27:39;9.60;;;3.10;;
68910;SDS011;55953;51.650;-0.522;2023-04-25T08:30:07;10.40;;;2.80;;
68910;SDS011;55953;51.650;-0.522;2023-04-25T08:32:36;10.00;;;3.10;;
68910;SDS011;55953;51.650;-0.522;2023-04-25T08:35:16;11.40;;;3.20;;
68910;SDS011;55953;51.650;-0.522;2023-04-25T08:37:45;10.50;;;3.00;;
68910;SDS011;55953;51.650;-0.522;2023-04-25T08:40:15;10.50;;;3.40;;
68910;SDS011;55953;51.650;-0.522;2023-04-25T08:43:07;13.40;;;3.70;;
68910;SDS011;55953;51.650;-0.522;2023-04-25T08:45:40;13.10;;;3.40;;
68910;SDS011;55953;51.650;-0.522;2023-04-25T08:48:15;11.10;;;3.50;;
68910;SDS011;55953;51.650;-0.522;2023-04-25T08:50:55;8.60;;;4.00;;
68910;SDS011;55953;51.650;-0.522;2023-04-25T08:53:30;10.40;;;3.70;;
68910;SDS011;55953;51.650;-0.522;2023-04-25T08:56:02;12.80;;;4.60;;
68910;SDS011;55953;51.650;-0.522;2023-04-25T08:58:35;11.50;;;3.90;;
68910;SDS011;55953;51.650;-0.522;2023-04-25T09:01:04;11.20;;;3.90;;
68910;SDS011;55953;51.650;-0.522;2023-04-25T09:03:37;9.50;;;3.50;;
68910;SDS011;55953;51.650;-0.522;2023-04-25T09:06:05;9.60;;;4.20;;
68910;SDS011;55953;51.650;-0.522;2023-04-25T09:08:36;10.10;;;3.90;;
68910;SDS011;55953;51.650;-0.522;2023-04-25T09:11:04;12.40;;;4.70;;
68910;SDS011;55953;51.650;-0.522;2023-04-25T09:13:32;10.70;;;4.50;;
68910;SDS011;55953;51.650;-0.522;2023-04-25T09:16:20;10.40;;;3.40;;
68910;SDS011;55953;51.650;-0.522;2023-04-25T09:19:04;9.20;;;3.30;;
68910;SDS011;55953;51.650;-0.522;2023-04-25T09:21:34;9.30;;;3.10;;
68910;SDS011;55953;51.650;-0.522;2023-04-25T09:24:03;6.70;;;3.10;;
68910;SDS011;55953;51.650;-0.522;2023-04-25T09:26:31;10.40;;;4.00;;
68910;SDS011;55953;51.650;-0.522;2023-04-25T09:29:07;10.30;;;3.90;;
68910;SDS011;55953;51.650;-0.522;2023-04-25T09:31:37;7.00;;;3.10;;
68910;SDS011;55953;51.650;-0.522;2023-04-25T09:34:05;8.80;;;3.50;;
68910;SDS011;55953;51.650;-0.522;2023-04-25T09:36:41;11.20;;;4.20;;
68910;SDS011;55953;51.650;-0.522;2023-04-25T09:39:32;11.10;;;3.80;;
68910;SDS011;55953;51.650;-0.522;2023-04-25T09:42:10;7.70;;;3.10;;
68910;SDS011;55953;51.650;-0.522;2023-04-25T09:44:42;9.40;;;3.10;;
68910;SDS011;55953;51.650;-0.522;2023-04-25T09:47:13;9.90;;;3.40;;
68910;SDS011;55953;51.650;-0.522;2023-04-25T09:49:45;6.10;;;2.60;;
68910;SDS011;55953;51.650;-0.522;2023-04-25T09:52:23;5.60;;;1.70;;
68910;SDS011;55953;51.650;-0.522;2023-04-25T09:55:15;7.20;;;1.50;;
68910;SDS011;55953;51.650;-0.522;2023-04-25T09:57:46;6.10;;;1.80;;
68910;SDS011;55953;51.650;-0.522;2023-04-25T10:00:18;5.70;;;2.10;;
68910;SDS011;55953;51.650;-0.522;2023-04-25T10:02:49;5.60;;;1.90;;
68910;SDS011;55953;51.650;-0.522;2023-04-25T10:05:41;6.60;;;1.80;;
68910;SDS011;55953;51.650;-0.522;2023-04-25T10:08:11;5.40;;;2.10;;
68910;SDS011;55953;51.650;-0.522;2023-04-25T10:10:41;3.70;;;1.40;;
68910;SDS011;55953;51.650;-0.522;2023-04-25T10:13:09;4.50;;;1.60;;
68910;SDS011;55953;51.650;-0.522;2023-04-25T10:15:37;5.10;;;1.50;;
68910;SDS011;55953;51.650;-0.522;2023-04-25T10:18:07;3.40;;;1.30;;
68910;SDS011;55953;51.650;-0.522;2023-04-25T10:20:35;5.90;;;1.30;;
68910;SDS011;55953;51.650;-0.522;2023-04-25T10:23:08;4.10;;;1.60;;
68910;SDS011;55953;51.650;-0.522;2023-04-25T10:25:43;3.80;;;1.40;;
68910;SDS011;55953;51.650;-0.522;2023-04-25T10:28:11;4.30;;;1.30;;
68910;SDS011;55953;51.650;-0.522;2023-04-25T10:30:57;3.70;;;1.40;;
68910;SDS011;55953;51.650;-0.522;2023-04-25T10:33:32;4.20;;;1.40;;
68910;SDS011;55953;51.650;-0.522;2023-04-25T10:36:21;4.00;;;1.40;;
68910;SDS011;55953;51.650;-0.522;2023-04-25T10:38:51;2.30;;;1.30;;
68910;SDS011;55953;51.650;-0.522;2023-04-25T10:41:21;6.00;;;1.50;;
68910;SDS011;55953;51.650;-0.522;2023-04-25T10:43:59;5.20;;;1.20;;
68910;SDS011;55953;51.650;-0.522;2023-04-25T10:46:29;4.20;;;1.30;;
68910;SDS011;55953;51.650;-0.522;2023-04-25T10:49:00;4.70;;;1.10;;
68910;SDS011;55953;51.650;-0.522;2023-04-25T10:51:31;4.60;;;1.50;;
68910;SDS011;55953;51.650;-0.522;2023-04-25T10:54:22;4.00;;;1.40;;
68910;SDS011;55953;51.650;-0.522;2023-04-25T10:56:52;4.30;;;1.30;;
68910;SDS011;55953;51.650;-0.522;2023-04-25T10:59:24;2.70;;;1.50;;
68910;SDS011;55953;51.650;-0.522;2023-04-25T11:01:52;9.10;;;1.70;;
68910;SDS011;55953;51.650;-0.522;2023-04-25T11:04:32;4.20;;;1.30;;
68910;SDS011;55953;51.650;-0.522;2023-04-25T11:07:33;4.20;;;1.50;;
68910;SDS011;55953;51.650;-0.522;2023-04-25T11:10:05;5.30;;;1.20;;
68910;SDS011;55953;51.650;-0.522;2023-04-25T11:12:34;4.20;;;1.30;;
68910;SDS011;55953;51.650;-0.522;2023-04-25T11:15:06;5.30;;;1.40;;
68910;SDS011;55953;51.650;-0.522;2023-04-25T11:17:35;3.90;;;1.40;;
68910;SDS011;55953;51.650;-0.522;2023-04-25T11:20:04;5.00;;;1.70;;
68910;SDS011;55953;51.650;-0.522;2023-04-25T11:22:37;3.70;;;1.60;;
68910;SDS011;55953;51.650;-0.522;2023-04-25T11:25:10;5.10;;;1.70;;
68910;SDS011;55953;51.650;-0.522;2023-04-25T11:27:58;4.50;;;1.60;;
68910;SDS011;55953;51.650;-0.522;2023-04-25T11:30:28;6.40;;;1.60;;
68910;SDS011;55953;51.650;-0.522;2023-04-25T11:32:58;4.90;;;1.60;;
68910;SDS011;55953;51.650;-0.522;2023-04-25T11:35:26;4.30;;;1.60;;
68910;SDS011;55953;51.650;-0.522;2023-04-25T11:37:54;3.90;;;1.80;;
68910;SDS011;55953;51.650;-0.522;2023-04-25T11:40:22;4.20;;;1.60;;
68910;SDS011;55953;51.650;-0.522;2023-04-25T11:42:50;4.20;;;1.90;;
68910;SDS011;55953;51.650;-0.522;2023-04-25T11:45:22;6.10;;;1.80;;
68910;SDS011;55953;51.650;-0.522;2023-04-25T11:47:51;3.10;;;1.50;;
68910;SDS011;55953;51.650;-0.522;2023-04-25T11:50:19;4.70;;;1.40;;
68910;SDS011;55953;51.650;-0.522;2023-04-25T11:52:47;3.00;;;1.60;;
68910;SDS011;55953;51.650;-0.522;2023-04-25T11:55:18;5.30;;;1.60;;
68910;SDS011;55953;51.650;-0.522;2023-04-25T11:57:48;3.60;;;1.70;;
68910;SDS011;55953;51.650;-0.522;2023-04-25T12:00:21;5.30;;;1.50;;
68910;SDS011;55953;51.650;-0.522;2023-04-25T12:02:54;5.30;;;1.80;;
68910;SDS011;55953;51.650;-0.522;2023-04-25T12:05:30;6.10;;;1.80;;
68910;SDS011;55953;51.650;-0.522;2023-04-25T12:08:15;5.60;;;1.50;;
68910;SDS011;55953;51.650;-0.522;2023-04-25T12:10:45;5.50;;;1.60;;
68910;SDS011;55953;51.650;-0.522;2023-04-25T12:13:24;6.70;;;1.50;;
68910;SDS011;55953;51.650;-0.522;2023-04-25T12:15:56;4.30;;;1.60;;
68910;SDS011;55953;51.650;-0.522;2023-04-25T12:18:24;6.00;;;1.80;;
68910;SDS011;55953;51.650;-0.522;2023-04-25T12:20:55;4.10;;;1.50;;
68910;SDS011;55953;51.650;-0.522;2023-04-25T12:23:27;4.80;;;1.80;;
68910;SDS011;55953;51.650;-0.522;2023-04-25T12:25:55;4.40;;;2.10;;
68910;SDS011;55953;51.650;-0.522;2023-04-25T12:28:24;4.70;;;1.80;;
68910;SDS011;55953;51.650;-0.522;2023-04-25T12:33:32;5.10;;;1.80;;
68910;SDS011;55953;51.650;-0.522;2023-04-25T12:36:03;5.70;;;2.00;;
68910;SDS011;55953;51.650;-0.522;2023-04-25T12:38:41;4.40;;;1.60;;
68910;SDS011;55953;51.650;-0.522;2023-04-25T12:41:09;3.80;;;1.70;;
68910;SDS011;55953;51.650;-0.522;2023-04-25T12:43:37;5.40;;;1.80;;
68910;SDS011;55953;51.650;-0.522;2023-04-25T12:46:05;5.40;;;1.80;;
68910;SDS011;55953;51.650;-0.522;2023-04-25T12:48:33;4.80;;;1.40;;
68910;SDS011;55953;51.650;-0.522;2023-04-25T12:51:01;5.50;;;2.00;;
68910;SDS011;55953;51.650;-0.522;2023-04-25T12:53:29;3.70;;;1.60;;
68910;SDS011;55953;51.650;-0.522;2023-04-25T12:55:57;5.00;;;2.00;;
68910;SDS011;55953;51.650;-0.522;2023-04-25T12:58:25;6.70;;;2.40;;
68910;SDS011;55953;51.650;-0.522;2023-04-25T13:00:53;6.90;;;2.00;;
68910;SDS011;55953;51.650;-0.522;2023-04-25T13:03:21;5.10;;;2.10;;
68910;SDS011;55953;51.650;-0.522;2023-04-25T13:05:50;4.40;;;1.90;;
68910;SDS011;55953;51.650;-0.522;2023-04-25T13:08:20;5.40;;;1.80;;
68910;SDS011;55953;51.650;-0.522;2023-04-25T13:10:48;5.70;;;2.00;;
68910;SDS011;55953;51.650;-0.522;2023-04-25T13:13:16;5.20;;;1.80;;
68910;SDS011;55953;51.650;-0.522;2023-04-25T13:15:44;5.00;;;2.00;;
68910;SDS011;55953;51.650;-0.522;2023-04-25T13:18:12;5.00;;;1.90;;
68910;SDS011;55953;51.650;-0.522;2023-04-25T13:20:40;5.70;;;2.10;;
68910;SDS011;55953;51.650;-0.522;2023-04-25T13:23:08;3.40;;;1.70;;
68910;SDS011;55953;51.650;-0.522;2023-04-25T13:25:35;5.00;;;2.00;;
68910;SDS011;55953;51.650;-0.522;2023-04-25T13:28:03;4.70;;;1.90;;
68910;SDS011;55953;51.650;-0.522;2023-04-25T13:30:32;5.30;;;2.10;;
68910;SDS011;55953;51.650;-0.522;2023-04-25T13:33:00;4.70;;;2.10;;
68910;SDS011;55953;51.650;-0.522;2023-04-25T13:35:32;5.20;;;2.30;;
68910;SDS011;55953;51.650;-0.522;2023-04-25T13:38:02;8.80;;;2.50;;
68910;SDS011;55953;51.650;-0.522;2023-04-25T13:40:30;5.10;;;2.00;;
68910;SDS011;55953;51.650;-0.522;2023-04-25T13:43:00;4.20;;;2.00;;
68910;SDS011;55953;51.650;-0.522;2023-04-25T13:45:29;5.40;;;1.70;;
68910;SDS011;55953;51.650;-0.522;2023-04-25T13:48:00;3.60;;;1.90;;
68910;SDS011;55953;51.650;-0.522;2023-04-25T13:50:28;4.30;;;1.60;;
68910;SDS011;55953;51.650;-0.522;2023-04-25T13:52:56;5.20;;;2.00;;
68910;SDS011;55953;51.650;-0.522;2023-04-25T13:55:24;6.80;;;2.40;;
68910;SDS011;55953;51.650;-0.522;2023-04-25T13:57:53;5.20;;;2.00;;
68910;SDS011;55953;51.650;-0.522;2023-04-25T14:00:21;4.80;;;1.90;;
68910;SDS011;55953;51.650;-0.522;2023-04-25T14:02:49;5.40;;;2.10;;
68910;SDS011;55953;51.650;-0.522;2023-04-25T14:05:17;7.00;;;2.20;;
68910;SDS011;55953;51.650;-0.522;2023-04-25T14:07:45;5.40;;;1.80;;
68910;SDS011;55953;51.650;-0.522;2023-04-25T14:10:13;5.50;;;2.00;;
68910;SDS011;55953;51.650;-0.522;2023-04-25T14:12:40;6.80;;;2.20;;
68910;SDS011;55953;51.650;-0.522;2023-04-25T14:15:09;7.30;;;2.30;;
68910;SDS011;55953;51.650;-0.522;2023-04-25T14:17:38;6.40;;;2.00;;
68910;SDS011;55953;51.650;-0.522;2023-04-25T14:20:08;6.20;;;2.20;;
68910;SDS011;55953;51.650;-0.522;2023-04-25T14:22:38;4.40;;;2.20;;
68910;SDS011;55953;51.650;-0.522;2023-04-25T14:25:10;4.50;;;2.40;;
68910;SDS011;55953;51.650;-0.522;2023-04-25T14:27:38;6.10;;;2.30;;
68910;SDS011;55953;51.650;-0.522;2023-04-25T14:30:07;4.50;;;2.00;;
68910;SDS011;55953;51.650;-0.522;2023-04-25T14:32:39;6.50;;;2.20;;
68910;SDS011;55953;51.650;-0.522;2023-04-25T14:35:07;4.80;;;2.30;;
68910;SDS011;55953;51.650;-0.522;2023-04-25T14:37:36;5.40;;;2.10;;
68910;SDS011;55953;51.650;-0.522;2023-04-25T14:40:05;6.80;;;2.50;;
68910;SDS011;55953;51.650;-0.522;2023-04-25T14:42:34;4.90;;;2.00;;
68910;SDS011;55953;51.650;-0.522;2023-04-25T14:45:04;3.90;;;1.80;;
68910;SDS011;55953;51.650;-0.522;2023-04-25T14:47:36;7.30;;;2.10;;
68910;SDS011;55953;51.650;-0.522;2023-04-25T14:50:06;5.10;;;2.20;;
68910;SDS011;55953;51.650;-0.522;2023-04-25T14:52:34;4.40;;;2.00;;
68910;SDS011;55953;51.650;-0.522;2023-04-25T14:55:03;7.20;;;2.20;;
68910;SDS011;55953;51.650;-0.522;2023-04-25T14:57:34;6.10;;;2.60;;
68910;SDS011;55953;51.650;-0.522;2023-04-25T15:00:03;5.90;;;2.20;;